createdAt,value
2023-03-22T00:00:11.325Z,9.63
2023-03-22T00:02:40.132Z,9.61
2023-03-22T00:05:08.713Z,9.56
2023-03-22T00:07:36.210Z,9.57
2023-03-22T00:10:05.149Z,9.51
2023-03-22T00:12:32.729Z,9.47
2023-03-22T00:14:59.975Z,9.47
2023-03-22T00:17:27.796Z,9.42
2023-03-22T00:19:56.332Z,9.36
2023-03-22T00:22:24.360Z,9.34
2023-03-22T00:24:51.528Z,9.44
2023-03-22T00:27:18.800Z,9.45
2023-03-22T00:29:46.057Z,9.44
2023-03-22T00:32:13.393Z,9.46
2023-03-22T00:34:40.723Z,9.45
2023-03-22T00:37:10.430Z,9.45
2023-03-22T00:39:37.915Z,9.44
2023-03-22T00:42:06.817Z,9.46
2023-03-22T00:44:34.184Z,9.41
2023-03-22T00:47:01.678Z,9.39
2023-03-22T00:49:28.926Z,9.45
2023-03-22T00:51:56.235Z,9.48
2023-03-22T00:54:24.980Z,9.48
2023-03-22T00:56:52.675Z,9.48
2023-03-22T00:59:19.934Z,9.48
2023-03-22T01:01:47.200Z,9.49
2023-03-22T01:04:14.618Z,9.54
2023-03-22T01:06:42.065Z,9.50
2023-03-22T01:09:09.525Z,9.54
2023-03-22T01:11:39.594Z,9.60
2023-03-22T01:14:06.841Z,9.59
2023-03-22T01:16:34.209Z,9.58
2023-03-22T01:19:01.569Z,9.59
2023-03-22T01:21:29.065Z,9.60
2023-03-22T01:23:56.304Z,9.62
2023-03-22T01:26:23.559Z,9.65
2023-03-22T01:28:52.132Z,9.63
2023-03-22T01:31:19.468Z,9.71
2023-03-22T01:33:46.741Z,9.66
2023-03-22T01:36:14.052Z,9.70
2023-03-22T01:38:41.360Z,9.74
2023-03-22T01:41:08.725Z,9.72
2023-03-22T01:43:39.429Z,9.73
2023-03-22T01:46:08.282Z,9.73
2023-03-22T01:48:38.864Z,9.76
2023-03-22T01:51:10.203Z,9.77
2023-03-22T01:53:51.726Z,9.79
2023-03-22T01:56:21.935Z,9.84
2023-03-22T01:58:50.685Z,9.82
2023-03-22T02:01:24.137Z,9.84
2023-03-22T02:03:57.095Z,9.81
2023-03-22T02:06:26.694Z,9.85
2023-03-22T02:09:00.457Z,9.87
2023-03-22T02:11:33.012Z,9.84
2023-03-22T02:14:23.653Z,9.81
2023-03-22T02:17:43.736Z,9.86
2023-03-22T02:20:58.615Z,9.92
2023-03-22T02:23:53.819Z,9.93
2023-03-22T02:26:52.176Z,9.91
2023-03-22T02:29:31.148Z,9.99
2023-03-22T02:32:39.818Z,10.04
2023-03-22T02:35:30.918Z,10.12
2023-03-22T02:38:20.805Z,10.18
2023-03-22T02:40:58.733Z,10.23
2023-03-22T02:43:35.231Z,10.25
2023-03-22T02:46:07.577Z,10.26
2023-03-22T02:48:42.164Z,10.35
2023-03-22T02:51:15.578Z,10.35
2023-03-22T02:53:47.889Z,10.40
2023-03-22T02:56:22.536Z,10.47
2023-03-22T02:58:51.961Z,10.49
2023-03-22T03:01:23.563Z,10.42
2023-03-22T03:03:56.417Z,10.56
2023-03-22T03:06:27.641Z,10.52
2023-03-22T03:08:55.958Z,10.55
2023-03-22T03:11:25.001Z,10.61
2023-03-22T03:13:52.377Z,10.60
2023-03-22T03:16:22.622Z,10.56
2023-03-22T03:18:58.273Z,10.56
2023-03-22T03:21:33.208Z,10.58
2023-03-22T03:24:10.684Z,10.57
2023-03-22T03:26:48.181Z,10.49
2023-03-22T03:29:22.100Z,10.55
2023-03-22T03:31:56.235Z,10.53
2023-03-22T03:34:29.883Z,10.49
2023-03-22T03:37:00.673Z,10.49
2023-03-22T03:39:32.643Z,10.54
2023-03-22T03:42:02.400Z,10.51
2023-03-22T03:44:31.429Z,10.56
2023-03-22T03:46:59.714Z,10.46
2023-03-22T03:49:27.175Z,10.46
2023-03-22T03:51:56.017Z,10.48
2023-03-22T03:54:23.974Z,10.44
2023-03-22T03:56:51.356Z,10.49
2023-03-22T03:59:20.299Z,10.41
2023-03-22T04:01:50.026Z,10.39
2023-03-22T04:04:24.134Z,10.40
2023-03-22T04:06:57.432Z,10.42
2023-03-22T04:09:26.344Z,10.33
2023-03-22T04:11:57.794Z,10.29
2023-03-22T04:14:26.949Z,10.29
2023-03-22T04:16:56.760Z,10.30
2023-03-22T04:19:25.091Z,10.32
2023-03-22T04:21:52.797Z,10.29
2023-03-22T04:24:20.731Z,10.33
2023-03-22T04:26:51.053Z,10.37
2023-03-22T04:29:23.444Z,10.34
2023-03-22T04:31:56.904Z,10.38
2023-03-22T04:34:32.229Z,10.39
2023-03-22T04:37:02.782Z,10.33
2023-03-22T04:39:50.403Z,10.36
2023-03-22T04:42:36.057Z,10.35
2023-03-22T04:45:13.813Z,10.37
2023-03-22T04:47:45.478Z,10.40
2023-03-22T04:50:12.924Z,10.40
2023-03-22T04:53:02.572Z,10.35
2023-03-22T04:55:32.116Z,10.28
2023-03-22T04:57:59.569Z,10.29
2023-03-22T05:00:27.092Z,10.32
2023-03-22T05:02:56.215Z,10.27
2023-03-22T05:05:33.375Z,10.27
2023-03-22T05:08:02.963Z,10.34
2023-03-22T05:10:30.237Z,10.31
2023-03-22T05:12:58.794Z,10.24
2023-03-22T05:15:32.239Z,10.27
2023-03-22T05:18:02.134Z,10.31
2023-03-22T05:20:29.424Z,10.26
2023-03-22T05:23:17.283Z,10.18
2023-03-22T05:25:45.253Z,10.21
2023-03-22T05:28:16.201Z,10.24
2023-03-22T05:30:47.698Z,10.21
2023-03-22T05:33:35.395Z,10.27
2023-03-22T05:36:03.992Z,10.35
2023-03-22T05:38:36.039Z,10.32
2023-03-22T05:41:05.413Z,10.30
2023-03-22T05:43:34.440Z,10.32
2023-03-22T05:46:05.254Z,10.35
2023-03-22T05:48:46.333Z,10.37
2023-03-22T05:51:16.499Z,10.36
2023-03-22T05:53:44.463Z,10.42
2023-03-22T05:56:21.360Z,10.50
2023-03-22T05:58:49.759Z,10.51
2023-03-22T06:01:19.453Z,10.56
2023-03-22T06:03:48.106Z,10.66
2023-03-22T06:06:45.828Z,10.59
2023-03-22T06:09:27.369Z,10.69
2023-03-22T06:11:54.670Z,10.76
2023-03-22T06:14:22.645Z,10.73
2023-03-22T06:17:12.929Z,10.70
2023-03-22T06:19:42.336Z,10.78
2023-03-22T06:22:11.132Z,10.78
2023-03-22T06:24:38.782Z,10.83
2023-03-22T06:27:06.464Z,10.91
2023-03-22T06:29:34.791Z,11.02
2023-03-22T06:32:05.168Z,11.06
2023-03-22T06:34:32.713Z,11.16
2023-03-22T06:37:02.635Z,11.20
2023-03-22T06:39:39.604Z,11.11
2023-03-22T06:42:07.525Z,11.17
2023-03-22T06:44:35.105Z,11.07
2023-03-22T06:47:22.635Z,11.09
2023-03-22T06:50:12.486Z,11.12
2023-03-22T06:52:56.774Z,11.17
2023-03-22T06:55:24.246Z,11.23
2023-03-22T06:57:51.619Z,11.33
2023-03-22T07:00:19.465Z,11.35
2023-03-22T07:02:46.793Z,11.39
2023-03-22T07:05:31.396Z,11.58
2023-03-22T07:08:00.000Z,11.58
2023-03-22T07:10:28.739Z,11.54
2023-03-22T07:12:57.076Z,11.63
2023-03-22T07:15:24.563Z,11.60
2023-03-22T07:17:59.535Z,11.67
2023-03-22T07:20:27.190Z,11.56
2023-03-22T07:22:54.468Z,11.56
2023-03-22T07:25:25.676Z,11.74
2023-03-22T07:28:01.171Z,11.74
2023-03-22T07:30:29.029Z,11.77
2023-03-22T07:32:56.622Z,11.75
2023-03-22T07:35:26.630Z,11.90
2023-03-22T07:37:54.206Z,11.85
2023-03-22T07:40:31.358Z,11.91
2023-03-22T07:42:59.016Z,11.86
2023-03-22T07:45:44.968Z,11.99
2023-03-22T07:48:30.558Z,11.94
2023-03-22T07:51:24.069Z,12.02
2023-03-22T07:53:51.652Z,11.93
2023-03-22T07:56:20.434Z,12.04
2023-03-22T07:58:47.903Z,12.05
2023-03-22T08:01:15.184Z,12.12
2023-03-22T08:03:48.472Z,12.10
2023-03-22T08:06:32.632Z,12.10
2023-03-22T08:09:00.632Z,12.22
2023-03-22T08:11:29.402Z,12.43
2023-03-22T08:13:58.046Z,12.61
2023-03-22T08:16:25.590Z,12.65
2023-03-22T08:18:53.204Z,12.73
2023-03-22T08:21:21.684Z,12.64
2023-03-22T08:23:53.195Z,12.55
2023-03-22T08:26:40.189Z,12.69
2023-03-22T08:29:16.483Z,12.79
2023-03-22T08:31:47.432Z,13.03
2023-03-22T08:34:14.923Z,12.97
2023-03-22T08:36:42.438Z,12.73
2023-03-22T08:39:10.337Z,12.82
2023-03-22T08:41:56.080Z,12.79
2023-03-22T08:44:25.742Z,12.78
2023-03-22T08:46:53.258Z,13.01
2023-03-22T08:49:20.938Z,13.28
2023-03-22T08:51:57.504Z,13.16
2023-03-22T08:54:45.024Z,13.13
2023-03-22T08:57:32.701Z,13.17
2023-03-22T09:00:47.849Z,13.31
2023-03-22T09:03:23.168Z,13.49
2023-03-22T09:05:50.556Z,13.95
2023-03-22T09:08:19.635Z,14.11
2023-03-22T09:10:51.077Z,13.74
2023-03-22T09:13:22.318Z,13.56
2023-03-22T09:15:55.132Z,13.45
2023-03-22T09:18:25.682Z,13.38
2023-03-22T09:20:54.479Z,13.35
2023-03-22T09:23:26.527Z,13.32
2023-03-22T09:25:54.526Z,13.44
2023-03-22T09:28:26.510Z,13.40
2023-03-22T09:31:00.228Z,13.55
2023-03-22T09:33:27.794Z,13.62
2023-03-22T09:35:56.072Z,13.66
2023-03-22T09:38:23.815Z,13.88
2023-03-22T09:40:54.882Z,14.11
2023-03-22T09:43:22.356Z,13.86
2023-03-22T09:45:52.450Z,13.67
2023-03-22T09:48:22.474Z,13.55
2023-03-22T09:50:53.250Z,13.56
2023-03-22T09:53:23.618Z,13.62
2023-03-22T09:55:57.325Z,13.65
2023-03-22T09:58:30.328Z,13.70
2023-03-22T10:01:02.939Z,13.86
2023-03-22T10:03:55.038Z,13.72
2023-03-22T10:06:24.945Z,13.68
2023-03-22T10:09:02.554Z,13.73
2023-03-22T10:11:44.407Z,13.67
2023-03-22T10:14:27.815Z,13.94
2023-03-22T10:16:59.434Z,14.03
2023-03-22T10:19:33.245Z,13.95
2023-03-22T10:22:02.227Z,14.18
2023-03-22T10:24:32.961Z,14.07
2023-03-22T10:27:00.400Z,14.20
2023-03-22T10:29:34.156Z,14.14
2023-03-22T10:32:14.490Z,14.01
2023-03-22T10:34:42.373Z,14.00
2023-03-22T10:37:13.813Z,14.14
2023-03-22T10:39:44.322Z,14.22
2023-03-22T10:42:15.493Z,14.22
2023-03-22T10:44:47.987Z,13.85
2023-03-22T10:47:20.170Z,13.73
2023-03-22T10:49:51.814Z,13.72
2023-03-22T10:52:34.410Z,13.83
2023-03-22T10:55:04.618Z,13.79
2023-03-22T10:57:32.327Z,13.95
2023-03-22T10:59:59.765Z,14.08
2023-03-22T11:02:30.809Z,13.70
2023-03-22T11:05:00.233Z,13.73
2023-03-22T11:07:31.802Z,13.77
2023-03-22T11:10:11.462Z,14.07
2023-03-22T11:12:42.462Z,14.08
2023-03-22T11:15:20.854Z,14.04
2023-03-22T11:17:49.909Z,14.26
2023-03-22T11:20:19.633Z,14.09
2023-03-22T11:22:48.513Z,14.12
2023-03-22T11:25:19.810Z,14.16
2023-03-22T11:27:52.552Z,14.30
2023-03-22T11:30:22.390Z,14.38
2023-03-22T11:33:00.829Z,14.48
2023-03-22T11:35:30.672Z,14.55
2023-03-22T11:37:58.392Z,14.38
2023-03-22T11:40:28.346Z,14.43
2023-03-22T11:45:46.382Z,14.31
2023-03-22T11:48:19.131Z,14.30
2023-03-22T11:50:48.040Z,14.28
2023-03-22T11:53:19.303Z,14.27
2023-03-22T11:55:48.605Z,14.06
2023-03-22T11:58:26.206Z,14.09
2023-03-22T12:00:57.045Z,14.05
2023-03-22T12:03:29.968Z,13.80
2023-03-22T12:06:02.485Z,13.82
2023-03-22T12:08:39.543Z,13.67
2023-03-22T12:11:11.299Z,13.51
2023-03-22T12:13:46.459Z,13.37
2023-03-22T12:16:24.765Z,13.31
2023-03-22T12:19:05.185Z,13.33
2023-03-22T12:21:32.555Z,13.05
2023-03-22T12:24:03.363Z,12.80
2023-03-22T12:26:32.123Z,12.66
2023-03-22T12:29:01.245Z,12.63
2023-03-22T12:31:32.410Z,12.52
2023-03-22T12:34:05.517Z,12.45
2023-03-22T12:36:38.290Z,12.29
2023-03-22T12:39:08.952Z,12.32
2023-03-22T12:41:39.299Z,12.28
2023-03-22T12:44:13.740Z,12.20
2023-03-22T12:46:49.061Z,12.20
2023-03-22T12:49:25.437Z,12.13
2023-03-22T12:51:56.305Z,12.08
2023-03-22T12:54:25.687Z,12.11
2023-03-22T12:56:54.889Z,12.09
2023-03-22T12:59:26.303Z,12.11
2023-03-22T13:01:56.425Z,12.15
2023-03-22T13:04:31.952Z,12.14
2023-03-22T13:07:10.640Z,12.21
2023-03-22T13:09:41.227Z,12.30
2023-03-22T13:12:32.637Z,12.44
2023-03-22T13:15:03.806Z,12.54
2023-03-22T13:17:48.722Z,12.72
2023-03-22T13:20:29.081Z,12.96
2023-03-22T13:23:26.688Z,13.01
2023-03-22T13:26:05.135Z,13.15
2023-03-22T13:28:32.967Z,13.17
2023-03-22T13:31:00.398Z,13.31
2023-03-22T13:33:30.994Z,13.29
2023-03-22T13:36:07.022Z,13.13
2023-03-22T13:38:37.797Z,13.07
2023-03-22T13:41:07.765Z,13.06
2023-03-22T13:43:43.817Z,13.01
2023-03-22T13:46:26.569Z,12.99
2023-03-22T13:49:13.091Z,13.06
2023-03-22T13:51:42.789Z,13.05
2023-03-22T13:54:18.234Z,13.01
2023-03-22T13:56:52.501Z,13.05
2023-03-22T13:59:24.744Z,13.02
2023-03-22T14:01:54.113Z,13.03
2023-03-22T14:04:25.527Z,13.18
2023-03-22T14:06:57.045Z,13.09
2023-03-22T14:09:33.234Z,13.06
2023-03-22T14:12:08.235Z,12.98
2023-03-22T14:14:41.833Z,13.11
2023-03-22T14:17:17.905Z,13.01
2023-03-22T14:19:45.585Z,13.03
